Time;durP1;ratioP1;P1;durP2;ratioP2;P2;SDS_P1;SDS_P2;PMS_P1;PMS_P2;Temp;Humidity;BMP_temperature;BMP_pressure;BME280_temperature;BME280_humidity;BME280_pressure;Samples;Min_cycle;Max_cycle;Signal;HPM_P1;HPM_P2
2021/07/23 00:00:54;;;;;;;0.63;0.63;;;15.30;70.10;;;;;;5093037;28;20028;-75
2021/07/23 00:03:20;;;;;;;0.65;0.65;;;15.30;70.10;;;;;;5074828;28;20035;-74
2021/07/23 00:05:46;;;;;;;0.85;0.70;;;15.30;70.10;;;;;;5092523;28;20116;-75
2021/07/23 00:08:11;;;;;;;0.80;0.80;;;15.30;70.20;;;;;;5074806;28;20024;-75
2021/07/23 00:10:37;;;;;;;1.10;0.90;;;15.20;70.20;;;;;;5092976;28;20481;-75
2021/07/23 00:13:03;;;;;;;0.80;0.80;;;15.20;70.30;;;;;;5092597;28;20435;-75
2021/07/23 00:15:28;;;;;;;0.50;0.50;;;15.20;70.30;;;;;;5092805;28;20085;-74
2021/07/23 00:17:54;;;;;;;0.50;0.50;;;15.20;70.40;;;;;;5092897;28;20055;-75
2021/07/23 00:20:19;;;;;;;0.80;0.80;;;15.20;70.40;;;;;;5092059;28;20056;-75
2021/07/23 00:22:45;;;;;;;0.68;0.68;;;15.20;70.50;;;;;;5092782;28;20086;-74
2021/07/23 00:25:11;;;;;;;0.70;0.70;;;15.20;70.50;;;;;;5092746;28;20020;-74
2021/07/23 00:27:36;;;;;;;1.20;0.73;;;15.10;70.50;;;;;;5092797;28;20103;-76
2021/07/23 00:30:03;;;;;;;0.70;0.70;;;15.10;70.50;;;;;;5092724;28;20024;-75
2021/07/23 00:32:29;;;;;;;1.08;0.70;;;15.10;70.60;;;;;;5092975;28;20031;-75
2021/07/23 00:34:54;;;;;;;0.55;0.55;;;15.00;70.60;;;;;;5092084;28;20012;-74
2021/07/23 00:37:20;;;;;;;1.08;1.00;;;15.00;70.70;;;;;;5092593;28;20024;-74
2021/07/23 00:39:45;;;;;;;0.73;0.70;;;14.90;70.70;;;;;;5074577;28;20023;-74
2021/07/23 00:42:11;;;;;;;1.02;0.80;;;14.90;70.80;;;;;;5074148;28;20508;-75
2021/07/23 00:44:38;;;;;;;0.40;0.40;;;14.90;70.80;;;;;;5093362;28;20460;-75
2021/07/23 00:47:03;;;;;;;0.82;0.82;;;14.90;70.80;;;;;;5096379;28;20361;-74
2021/07/23 00:49:30;;;;;;;0.82;0.70;;;14.90;70.90;;;;;;5095706;28;20020;-74
2021/07/23 00:51:56;;;;;;;0.70;0.70;;;14.90;70.90;;;;;;5096214;28;20383;-75
2021/07/23 00:54:23;;;;;;;0.40;0.40;;;14.90;71.00;;;;;;5096222;28;20085;-74
2021/07/23 00:56:49;;;;;;;0.52;0.52;;;14.90;71.00;;;;;;5096208;28;20024;-73
2021/07/23 00:59:16;;;;;;;0.60;0.60;;;14.90;71.00;;;;;;5096013;28;20487;-74
2021/07/23 01:01:42;;;;;;;0.60;0.60;;;14.90;71.00;;;;;;5095857;28;20035;-74
2021/07/23 01:04:08;;;;;;;1.08;0.73;;;14.90;71.10;;;;;;5095409;28;20099;-75
2021/07/23 01:06:38;;;;;;;1.13;0.85;;;14.90;71.20;;;;;;5095689;28;20449;-75
2021/07/23 01:09:03;;;;;;;;;;;14.80;71.10;;;;;;5096498;28;20460;-75
2021/07/23 01:11:29;;;;;;;0.88;0.85;;;14.70;70.90;;;;;;5095593;28;19995;-74
2021/07/23 01:13:54;;;;;;;1.35;1.00;;;14.70;71.30;;;;;;5095868;28;20103;-74
2021/07/23 01:16:21;;;;;;;0.60;0.60;;;14.70;71.30;;;;;;5095442;28;20472;-75
2021/07/23 01:18:47;;;;;;;1.63;1.08;;;14.70;71.30;;;;;;5076902;28;20023;-74
2021/07/23 01:21:13;;;;;;;1.10;1.00;;;14.70;71.30;;;;;;5095192;28;20048;-75
2021/07/23 01:23:40;;;;;;;0.65;0.60;;;14.70;71.30;;;;;;5095549;28;20024;-75
2021/07/23 01:26:06;;;;;;;0.60;0.60;;;14.60;71.40;;;;;;5095570;28;20082;-75
2021/07/23 01:28:34;;;;;;;0.57;0.57;;;14.60;71.50;;;;;;5095448;28;20524;-74
2021/07/23 01:31:01;;;;;;;0.68;0.68;;;14.60;71.60;;;;;;5095398;28;20150;-74
2021/07/23 01:33:28;;;;;;;0.50;0.50;;;14.60;71.70;;;;;;5076768;28;20024;-73
2021/07/23 01:35:53;;;;;;;0.55;0.40;;;14.60;71.70;;;;;;5095271;28;20024;-73
2021/07/23 01:38:23;;;;;;;0.65;0.60;;;14.60;71.70;;;;;;5095506;28;20028;-74
2021/07/23 01:40:49;;;;;;;0.65;0.55;;;14.60;71.80;;;;;;5093219;28;20035;-74
2021/07/23 01:43:15;;;;;;;0.88;0.80;;;14.50;71.80;;;;;;5094794;28;20028;-74
2021/07/23 01:45:41;;;;;;;1.33;0.80;;;14.50;71.90;;;;;;5076912;28;20043;-74
2021/07/23 01:48:07;;;;;;;1.27;0.90;;;14.50;72.00;;;;;;5094460;28;20480;-74
2021/07/23 01:50:33;;;;;;;0.57;0.57;;;14.40;72.10;;;;;;5094755;28;20032;-73
2021/07/23 01:52:58;;;;;;;0.70;0.70;;;14.50;72.10;;;;;;5095004;28;20095;-73
2021/07/23 01:55:24;;;;;;;1.08;0.98;;;14.50;72.10;;;;;;5076447;28;20488;-73
2021/07/23 01:57:49;;;;;;;0.52;0.52;;;14.50;72.20;;;;;;5094884;28;20055;-74
2021/07/23 02:00:15;;;;;;;0.63;0.63;;;14.50;72.20;;;;;;5094881;28;20024;-74
2021/07/23 02:02:41;;;;;;;0.70;0.70;;;14.50;72.30;;;;;;5076080;28;20024;-75
2021/07/23 02:05:07;;;;;;;0.93;0.85;;;14.50;72.30;;;;;;5094782;28;20095;-75
2021/07/23 02:07:33;;;;;;;1.25;0.90;;;14.40;72.40;;;;;;5094680;28;20110;-75
2021/07/23 02:09:58;;;;;;;0.70;0.70;;;14.40;72.50;;;;;;5094495;28;20072;-75
2021/07/23 02:12:26;;;;;;;0.65;0.65;;;14.30;72.60;;;;;;5094282;28;20020;-74
2021/07/23 02:14:51;;;;;;;1.30;1.13;;;14.30;72.80;;;;;;5094072;28;20027;-75
2021/07/23 02:17:17;;;;;;;0.80;0.80;;;14.30;72.90;;;;;;5094504;28;20074;-73
2021/07/23 02:19:42;;;;;;;0.70;0.70;;;14.30;73.00;;;;;;5094484;28;20031;-73
2021/07/23 02:22:08;;;;;;;0.90;0.90;;;14.20;73.00;;;;;;5094256;28;20115;-74
2021/07/23 02:24:33;;;;;;;0.80;0.80;;;14.20;73.10;;;;;;5076251;28;20012;-73
2021/07/23 02:26:59;;;;;;;1.55;1.10;;;14.20;73.10;;;;;;5094325;28;20483;-74
2021/07/23 02:29:25;;;;;;;0.98;0.68;;;14.20;73.10;;;;;;5075622;28;20461;-75
2021/07/23 02:31:50;;;;;;;1.20;1.10;;;14.10;73.20;;;;;;5094183;28;20029;-74
2021/07/23 02:34:16;;;;;;;0.82;0.82;;;14.10;73.20;;;;;;5094166;28;20046;-74
2021/07/23 02:36:42;;;;;;;0.80;0.80;;;14.10;73.20;;;;;;5094183;28;20085;-74
2021/07/23 02:39:08;;;;;;;0.90;0.90;;;14.10;73.20;;;;;;5094078;28;20016;-73
2021/07/23 02:41:34;;;;;;;1.35;0.95;;;14.10;73.30;;;;;;5093711;28;20063;-74
2021/07/23 02:43:59;;;;;;;0.98;0.88;;;14.00;73.30;;;;;;5093582;28;20032;-73
2021/07/23 02:46:25;;;;;;;1.45;1.17;;;14.00;73.30;;;;;;5093926;28;20020;-73
2021/07/23 02:48:50;;;;;;;0.98;0.93;;;14.10;73.40;;;;;;5093650;28;20020;-74
2021/07/23 02:51:16;;;;;;;1.20;1.10;;;14.00;73.40;;;;;;5093970;28;20032;-74
2021/07/23 02:53:41;;;;;;;1.00;0.90;;;14.00;73.40;;;;;;5093785;28;20020;-75
2021/07/23 02:56:07;;;;;;;0.65;0.65;;;14.00;74.10;;;;;;5093702;28;20024;-75
2021/07/23 02:58:37;;;;;;;0.93;0.90;;;14.00;73.40;;;;;;5093366;28;20032;-74
2021/07/23 03:01:04;;;;;;;0.55;0.50;;;14.00;73.40;;;;;;5093646;28;20464;-75
2021/07/23 03:03:30;;;;;;;1.08;0.90;;;14.00;73.50;;;;;;5093628;28;20020;-75
2021/07/23 03:05:56;;;;;;;0.65;0.60;;;14.00;73.50;;;;;;5093682;28;20020;-75
2021/07/23 03:08:22;;;;;;;1.20;1.02;;;14.00;73.50;;;;;;5093138;28;20036;-75
2021/07/23 03:10:47;;;;;;;1.40;1.20;;;14.00;73.50;;;;;;5092944;28;20073;-75
2021/07/23 03:13:13;;;;;;;0.90;0.90;;;14.00;73.60;;;;;;5092989;28;20076;-74
2021/07/23 03:15:39;;;;;;;0.93;0.70;;;14.00;73.60;;;;;;5093741;28;20080;-75
2021/07/23 03:18:04;;;;;;;1.17;0.77;;;14.00;73.60;;;;;;5093447;28;20104;-74
2021/07/23 03:20:30;;;;;;;0.75;0.73;;;14.00;73.70;;;;;;5093339;28;20040;-75
2021/07/23 03:22:55;;;;;;;1.08;0.98;;;14.00;73.70;;;;;;5093391;28;20040;-75
2021/07/23 03:25:21;;;;;;;0.95;0.95;;;14.00;74.40;;;;;;5075192;28;20524;-75
2021/07/23 03:27:46;;;;;;;0.80;0.80;;;13.90;73.70;;;;;;5074761;28;20035;-74
2021/07/23 03:30:12;;;;;;;0.80;0.80;;;13.90;73.80;;;;;;5093282;28;20173;-75
2021/07/23 03:32:37;;;;;;;1.23;0.90;;;13.90;73.90;;;;;;5093297;28;20503;-74
2021/07/23 03:35:03;;;;;;;1.25;1.15;;;13.90;73.90;;;;;;5093250;28;20032;-74
2021/07/23 03:37:29;;;;;;;1.10;0.88;;;13.90;73.90;;;;;;5093197;28;20062;-75
2021/07/23 03:39:54;;;;;;;1.70;0.82;;;13.90;74.00;;;;;;5092992;28;20024;-75
2021/07/23 03:42:20;;;;;;;0.73;0.70;;;13.80;74.10;;;;;;5074552;28;20046;-74
2021/07/23 03:44:46;;;;;;;0.82;0.82;;;13.80;74.10;;;;;;5093216;28;20107;-74
2021/07/23 03:47:11;;;;;;;1.05;0.95;;;13.80;74.20;;;;;;5093005;28;20107;-73
2021/07/23 03:49:37;;;;;;;1.75;1.25;;;13.80;74.20;;;;;;5093007;28;20465;-75
2021/07/23 03:52:03;;;;;;;1.73;1.00;;;13.80;74.30;;;;;;5093457;28;20020;-74
2021/07/23 03:54:28;;;;;;;1.23;1.00;;;13.80;74.30;;;;;;5093028;28;20031;-73
2021/07/23 03:56:54;;;;;;;1.25;1.10;;;13.80;74.30;;;;;;5092559;28;20081;-73
2021/07/23 03:59:21;;;;;;;1.23;0.98;;;13.80;74.30;;;;;;5093038;28;20362;-74
2021/07/23 04:01:46;;;;;;;0.98;0.82;;;13.70;74.40;;;;;;5093039;28;20549;-74
2021/07/23 04:04:12;;;;;;;3.72;1.20;;;13.80;74.40;;;;;;5092787;28;20024;-75
2021/07/23 04:06:37;;;;;;;1.45;0.98;;;13.80;74.40;;;;;;5092960;28;20024;-75
2021/07/23 04:09:03;;;;;;;1.23;1.00;;;13.80;74.40;;;;;;5092742;28;20024;-73
2021/07/23 04:11:35;;;;;;;1.00;0.88;;;13.80;74.40;;;;;;5074452;28;20162;-74
2021/07/23 04:14:00;;;;;;;0.77;0.77;;;13.80;74.40;;;;;;5092940;28;20016;-74
2021/07/23 04:16:26;;;;;;;1.05;0.95;;;13.80;74.50;;;;;;5092728;28;20032;-74
2021/07/23 04:18:52;;;;;;;0.88;0.80;;;13.80;74.50;;;;;;5093024;28;20095;-74
2021/07/23 04:21:17;;;;;;;1.20;1.10;;;13.80;74.60;;;;;;5096207;28;20054;-74
2021/07/23 04:23:43;;;;;;;1.20;1.05;;;13.80;74.60;;;;;;5096894;28;20039;-74
2021/07/23 04:26:09;;;;;;;0.70;0.70;;;13.80;74.60;;;;;;5096204;28;20062;-75
2021/07/23 04:28:37;;;;;;;1.20;0.98;;;13.90;74.60;;;;;;5096493;28;20039;-73
2021/07/23 04:31:03;;;;;;;0.85;0.82;;;13.90;74.70;;;;;;5096642;28;20032;-74
2021/07/23 04:33:28;;;;;;;1.38;1.27;;;13.90;74.70;;;;;;5096537;28;20015;-74
2021/07/23 04:35:54;;;;;;;1.65;1.13;;;13.90;74.70;;;;;;5096645;28;20024;-74
2021/07/23 04:38:19;;;;;;;0.60;0.60;;;13.90;74.70;;;;;;5096382;28;20021;-73
2021/07/23 04:40:45;;;;;;;1.52;1.00;;;14.00;74.70;;;;;;5095448;28;20063;-74
2021/07/23 04:43:10;;;;;;;0.85;0.80;;;14.00;74.60;;;;;;5096256;28;20056;-73
2021/07/23 04:45:36;;;;;;;1.27;0.85;;;14.10;74.50;;;;;;5096241;28;20071;-75
2021/07/23 04:48:01;;;;;;;0.70;0.70;;;14.10;74.50;;;;;;5096227;28;20028;-74
2021/07/23 04:50:27;;;;;;;0.47;0.47;;;14.20;74.50;;;;;;5096221;28;20020;-74
2021/07/23 04:52:56;;;;;;;1.00;0.80;;;14.20;74.50;;;;;;5096244;28;20107;-74
2021/07/23 04:55:23;;;;;;;0.60;0.60;;;14.20;74.40;;;;;;5077283;28;20020;-74
2021/07/23 04:57:49;;;;;;;1.50;1.00;;;14.30;74.40;;;;;;5095990;28;20027;-73
2021/07/23 05:00:15;;;;;;;1.13;0.95;;;14.30;74.40;;;;;;5077618;28;20418;-74
2021/07/23 05:02:41;;;;;;;0.95;0.80;;;14.30;74.40;;;;;;5096205;28;20046;-74
2021/07/23 05:05:12;;;;;;;0.63;0.63;;;14.40;74.40;;;;;;5096032;28;20008;-75
2021/07/23 05:07:40;;;;;;;1.30;1.00;;;14.50;74.40;;;;;;5095877;28;20035;-75
2021/07/23 05:10:07;;;;;;;0.82;0.70;;;14.50;74.30;;;;;;5077222;28;20034;-74
2021/07/23 05:12:33;;;;;;;0.82;0.70;;;14.50;74.30;;;;;;5077636;28;20031;-74
2021/07/23 05:14:59;;;;;;;0.68;0.68;;;14.60;74.30;;;;;;5077533;28;20020;-74
2021/07/23 05:17:25;;;;;;;0.90;0.80;;;14.60;74.20;;;;;;5095754;28;20027;-73
2021/07/23 05:19:50;;;;;;;1.25;0.85;;;14.70;74.30;;;;;;5095386;28;20028;-73
2021/07/23 05:22:16;;;;;;;0.98;0.77;;;14.80;74.30;;;;;;5095708;28;20063;-75
2021/07/23 05:24:42;;;;;;;1.00;0.90;;;14.80;74.30;;;;;;5094991;28;20020;-74
2021/07/23 05:27:07;;;;;;;1.05;0.80;;;14.90;74.20;;;;;;5095554;28;20108;-76
2021/07/23 05:29:33;;;;;;;0.70;0.70;;;15.00;74.20;;;;;;5095307;28;20024;-73
2021/07/23 05:31:58;;;;;;;0.82;0.80;;;15.00;74.20;;;;;;5094701;28;20024;-74
2021/07/23 05:34:24;;;;;;;0.73;0.73;;;15.10;74.10;;;;;;5095461;28;20028;-75
2021/07/23 05:36:50;;;;;;;0.70;0.70;;;15.20;74.10;;;;;;5077086;28;20027;-72
2021/07/23 05:39:15;;;;;;;0.60;0.60;;;15.20;74.10;;;;;;5094868;28;20102;-73
2021/07/23 05:41:41;;;;;;;0.65;0.65;;;15.30;74.00;;;;;;5095101;28;20040;-78
2021/07/23 05:44:06;;;;;;;0.75;0.70;;;15.40;74.00;;;;;;5085853;28;20070;-78
2021/07/23 05:46:32;;;;;;;0.60;0.50;;;15.40;73.90;;;;;;5090752;28;20468;-78
2021/07/23 05:48:58;;;;;;;0.55;0.55;;;15.50;73.90;;;;;;5095100;28;20090;-76
2021/07/23 05:51:23;;;;;;;0.25;0.25;;;15.50;73.90;;;;;;5094907;28;20473;-76
2021/07/23 05:53:49;;;;;;;1.02;0.98;;;15.60;73.90;;;;;;5094428;28;20091;-76
2021/07/23 05:56:14;;;;;;;0.70;0.63;;;15.70;73.90;;;;;;5094936;28;20547;-76
2021/07/23 05:58:40;;;;;;;0.38;0.38;;;15.80;73.80;;;;;;5090858;28;20009;-77
2021/07/23 06:01:08;;;;;;;0.60;0.60;;;15.80;73.80;;;;;;5074415;28;20052;-77
2021/07/23 06:03:35;;;;;;;0.40;0.40;;;15.90;73.70;;;;;;5074863;28;20092;-77
2021/07/23 06:06:02;;;;;;;0.30;0.30;;;16.00;73.70;;;;;;5074444;28;20382;-76
2021/07/23 06:08:28;;;;;;;0.65;0.50;;;16.10;74.30;;;;;;5074003;28;20051;-77
2021/07/23 06:10:53;;;;;;;0.50;0.50;;;16.20;73.50;;;;;;5074259;28;20033;-77
2021/07/23 06:13:19;;;;;;;0.68;0.68;;;16.30;73.50;;;;;;5074301;28;20031;-77
2021/07/23 06:15:44;;;;;;;0.47;0.47;;;16.40;73.40;;;;;;5074260;28;20056;-76
2021/07/23 06:18:10;;;;;;;0.45;0.30;;;16.50;73.30;;;;;;5075530;28;20024;-76
2021/07/23 06:20:35;;;;;;;0.40;0.40;;;16.50;73.30;;;;;;5094202;28;20123;-76
2021/07/23 06:23:01;;;;;;;0.57;0.47;;;16.60;73.30;;;;;;5075730;28;20032;-75
2021/07/23 06:25:26;;;;;;;0.60;0.60;;;16.70;73.20;;;;;;5094446;28;20077;-75
2021/07/23 06:27:52;;;;;;;0.82;0.52;;;16.80;73.20;;;;;;5094218;28;20040;-77
2021/07/23 06:30:18;;;;;;;0.47;0.47;;;16.90;73.10;;;;;;5094415;28;20468;-75
2021/07/23 06:32:43;;;;;;;0.35;0.35;;;17.00;73.00;;;;;;5094293;28;20469;-78
2021/07/23 06:35:09;;;;;;;0.30;0.30;;;17.10;72.90;;;;;;5076136;28;20016;-76
2021/07/23 06:37:38;;;;;;;0.47;0.45;;;17.30;72.80;;;;;;5093571;28;20103;-76
2021/07/23 06:40:04;;;;;;;0.50;0.50;;;17.40;72.70;;;;;;5075822;28;20111;-76
2021/07/23 06:42:29;;;;;;;0.85;0.70;;;17.50;72.60;;;;;;5093076;28;20111;-76
2021/07/23 06:44:55;;;;;;;0.50;0.50;;;17.60;73.20;;;;;;5075116;28;20132;-77
2021/07/23 06:47:21;;;;;;;0.80;0.43;;;17.70;72.60;;;;;;5075836;28;20069;-78
2021/07/23 06:49:51;;;;;;;0.40;0.30;;;17.80;72.50;;;;;;5093938;28;20025;-77
2021/07/23 06:52:16;;;;;;;0.60;0.60;;;17.90;72.50;;;;;;5093071;28;20020;-77
2021/07/23 06:54:42;;;;;;;0.70;0.70;;;18.00;72.40;;;;;;5093500;28;20077;-77
2021/07/23 06:57:07;;;;;;;0.60;0.60;;;18.20;72.30;;;;;;5090231;28;20358;-77
2021/07/23 06:59:34;;;;;;;0.88;0.63;;;18.20;72.20;;;;;;5094022;28;20028;-76
2021/07/23 07:02:00;;;;;;;0.68;0.57;;;18.30;72.30;;;;;;5093493;28;20040;-76
2021/07/23 07:04:26;;;;;;;1.13;0.80;;;18.30;72.30;;;;;;5093929;28;20040;-77
2021/07/23 07:06:55;;;;;;;0.90;0.90;;;18.30;72.40;;;;;;5092837;28;20035;-77
2021/07/23 07:09:27;;;;;;;0.85;0.70;;;18.40;72.40;;;;;;5093648;28;20389;-76
2021/07/23 07:11:58;;;;;;;0.60;0.60;;;18.40;72.60;;;;;;5075366;28;20028;-77
2021/07/23 07:14:23;;;;;;;0.60;0.60;;;18.40;72.60;;;;;;5077564;28;20032;-75
2021/07/23 07:16:49;;;;;;;0.40;0.40;;;18.40;72.50;;;;;;5073358;28;20039;-76
2021/07/23 07:19:14;;;;;;;1.10;0.77;;;18.50;72.50;;;;;;5073224;28;20020;-77
2021/07/23 07:21:47;;;;;;;0.60;0.60;;;18.70;72.40;;;;;;5072529;28;20052;-77
2021/07/23 07:24:13;;;;;;;0.52;0.52;;;18.80;72.20;;;;;;5075135;28;20380;-77
2021/07/23 07:26:39;;;;;;;0.77;0.77;;;18.90;72.10;;;;;;5093151;28;20103;-77
2021/07/23 07:29:04;;;;;;;0.35;0.35;;;19.00;71.80;;;;;;5093117;28;20106;-77
2021/07/23 07:31:29;;;;;;;0.50;0.50;;;19.20;71.70;;;;;;5084168;28;20028;-77
2021/07/23 07:33:56;;;;;;;0.30;0.30;;;19.30;71.70;;;;;;5072681;28;20025;-77
2021/07/23 07:36:21;;;;;;;0.38;0.38;;;19.40;71.60;;;;;;5073135;28;20095;-79
2021/07/23 07:38:47;;;;;;;0.32;0.32;;;19.40;71.40;;;;;;5073066;28;20044;-78
2021/07/23 07:41:20;;;;;;;0.50;0.43;;;19.50;71.40;;;;;;5078311;28;20032;-78
2021/07/23 07:43:46;;;;;;;0.55;0.55;;;19.50;71.50;;;;;;5075283;28;20051;-80
2021/07/23 07:46:12;;;;;;;0.60;0.60;;;19.40;71.60;;;;;;5093346;28;20020;-79
2021/07/23 07:48:38;;;;;;;0.82;0.82;;;19.30;71.70;;;;;;5090014;28;20040;-81
2021/07/23 07:51:03;;;;;;;0.50;0.50;;;19.30;71.80;;;;;;5072893;28;20075;-79
2021/07/23 07:53:29;;;;;;;0.70;0.70;;;19.30;71.90;;;;;;5073541;28;20048;-79
2021/07/23 07:55:55;;;;;;;0.98;0.80;;;19.30;71.90;;;;;;5077227;28;20092;-80
2021/07/23 07:58:20;;;;;;;0.60;0.60;;;19.40;71.70;;;;;;5075616;28;20081;-79
2021/07/23 08:00:46;;;;;;;1.00;0.60;;;19.50;71.60;;;;;;5094873;28;20028;-77
2021/07/23 08:03:11;;;;;;;0.50;0.50;;;19.60;71.40;;;;;;5096743;28;20034;-77
2021/07/23 08:05:37;;;;;;;0.40;0.40;;;19.70;71.30;;;;;;5096971;28;20024;-77
2021/07/23 08:08:04;;;;;;;0.73;0.73;;;19.80;71.20;;;;;;5096297;28;20077;-75
2021/07/23 08:10:33;;;;;;;0.60;0.60;;;19.80;71.00;;;;;;5078738;28;20103;-76
2021/07/23 08:12:59;;;;;;;;;;;19.80;71.00;;;;;;5097240;28;20016;-77
2021/07/23 08:15:24;;;;;;;1.95;0.68;;;19.60;71.50;;;;;;5096822;28;19904;-76
2021/07/23 08:17:52;;;;;;;0.50;0.50;;;19.60;71.70;;;;;;5093496;28;20103;-77
2021/07/23 08:20:17;;;;;;;1.08;0.70;;;19.70;71.50;;;;;;5093331;28;20377;-76
2021/07/23 08:22:43;;;;;;;0.80;0.80;;;19.80;71.40;;;;;;5090954;28;20043;-77
2021/07/23 08:25:09;;;;;;;0.50;0.50;;;19.90;71.20;;;;;;5082103;28;20016;-76
2021/07/23 08:27:37;;;;;;;0.52;0.52;;;19.90;71.10;;;;;;5093857;28;20030;-76
2021/07/23 08:30:04;;;;;;;0.50;0.50;;;20.00;71.10;;;;;;5093504;28;20043;-76
2021/07/23 08:32:36;;;;;;;1.50;0.80;;;20.00;71.40;;;;;;5093425;28;20472;-75
2021/07/23 08:35:03;;;;;;;0.47;0.47;;;19.90;71.10;;;;;;5074620;28;20039;-78
2021/07/23 08:37:28;;;;;;;0.60;0.60;;;19.90;71.40;;;;;;5091469;28;20038;-76
2021/07/23 08:39:54;;;;;;;0.60;0.60;;;20.00;71.30;;;;;;5093964;28;20024;-76
2021/07/23 08:42:31;;;;;;;0.70;0.70;;;20.00;71.10;;;;;;5093785;28;20032;-76
2021/07/23 08:44:58;;;;;;;0.60;0.60;;;20.00;71.10;;;;;;5093278;28;20415;-78
2021/07/23 08:47:24;;;;;;;0.50;0.50;;;20.00;71.30;;;;;;5093271;28;20485;-77
2021/07/23 08:49:50;;;;;;;0.65;0.43;;;20.00;71.30;;;;;;5093623;28;20032;-78
2021/07/23 08:52:16;;;;;;;1.05;0.80;;;20.10;71.10;;;;;;5088839;22;20059;-74
2021/07/23 08:54:43;;;;;;;1.40;0.60;;;20.20;71.00;;;;;;5071504;28;20024;-75
2021/07/23 08:57:09;;;;;;;0.82;0.82;;;20.30;70.90;;;;;;5073050;28;20012;-74
2021/07/23 08:59:35;;;;;;;0.68;0.60;;;20.40;70.80;;;;;;5073175;28;20099;-74
2021/07/23 09:02:06;;;;;;;0.52;0.52;;;20.40;70.60;;;;;;5053169;28;20033;-74
2021/07/23 09:04:36;;;;;;;0.70;0.70;;;20.40;70.80;;;;;;5053193;28;20024;-74
2021/07/23 09:07:14;;;;;;;0.60;0.60;;;20.50;70.70;;;;;;5052120;28;20397;-74
2021/07/23 09:09:40;;;;;;;0.75;0.75;;;20.70;70.60;;;;;;5034965;28;20553;-74
2021/07/23 09:12:07;;;;;;;0.75;0.52;;;20.70;70.30;;;;;;5042317;28;20048;-75
2021/07/23 09:14:32;;;;;;;0.90;0.73;;;20.80;70.20;;;;;;5072605;28;20025;-76
2021/07/23 09:16:58;;;;;;;0.75;0.65;;;20.90;70.10;;;;;;5068428;28;20090;-76
2021/07/23 09:19:23;;;;;;;1.00;0.90;;;21.10;69.90;;;;;;5052609;28;20032;-77
2021/07/23 09:21:59;;;;;;;0.50;0.50;;;21.20;69.80;;;;;;5034862;28;20505;-77
2021/07/23 09:24:25;;;;;;;0.70;0.70;;;21.30;69.70;;;;;;5052930;28;20029;-75
2021/07/23 09:26:51;;;;;;;0.90;0.60;;;21.30;69.70;;;;;;5068736;28;20485;-80
2021/07/23 09:29:17;;;;;;;1.00;0.75;;;21.30;69.80;;;;;;5072487;28;20095;-78
2021/07/23 09:32:06;;;;;;;0.65;0.60;;;21.30;69.80;;;;;;5069683;28;20742;-79
2021/07/23 09:34:32;;;;;;;;;;;21.30;70.00;;;;;;5034964;28;20056;-79
2021/07/23 09:37:11;;;;;;;1.65;0.73;;;21.20;70.10;;;;;;5052697;28;20326;-80
2021/07/23 09:39:39;;;;;;;0.70;0.70;;;21.20;70.10;;;;;;5053351;28;20036;-79
2021/07/23 09:42:04;;;;;;;0.60;0.60;;;21.20;70.20;;;;;;5053633;28;20506;-79
2021/07/23 09:44:30;;;;;;;0.50;0.50;;;21.10;70.40;;;;;;5054529;28;20099;-79
2021/07/23 09:46:56;;;;;;;0.80;0.80;;;21.00;70.60;;;;;;5054467;28;20035;-80
2021/07/23 09:49:27;;;;;;;0.50;0.50;;;21.00;70.60;;;;;;5054745;28;20106;-80
2021/07/23 09:52:04;;;;;;;1.15;1.10;;;20.90;70.50;;;;;;5068092;28;20083;-80
2021/07/23 09:54:30;;;;;;;0.50;0.40;;;20.80;70.60;;;;;;5058930;28;20032;-80
2021/07/23 09:56:56;;;;;;;0.70;0.70;;;20.90;70.70;;;;;;5054852;28;20029;-80
2021/07/23 09:59:36;;;;;;;0.57;0.55;;;20.90;70.50;;;;;;5054364;28;20018;-80
2021/07/23 10:02:05;;;;;;;1.27;1.17;;;21.00;70.20;;;;;;5055715;28;20040;-80
2021/07/23 10:04:38;;;;;;;0.70;0.70;;;21.00;70.10;;;;;;5054762;28;20065;-81
2021/07/23 10:07:04;;;;;;;0.57;0.43;;;21.10;70.10;;;;;;5054582;28;20098;-81
2021/07/23 10:09:31;;;;;;;0.93;0.85;;;21.00;70.10;;;;;;5036551;28;20070;-79
2021/07/23 10:11:58;;;;;;;0.60;0.60;;;21.10;70.00;;;;;;5054672;28;20067;-85
2021/07/23 10:14:27;;;;;;;0.90;0.70;;;21.20;69.90;;;;;;5036022;28;20121;-82
2021/07/23 10:16:53;;;;;;;0.60;0.50;;;21.50;69.70;;;;;;5036706;28;20018;-81
2021/07/23 10:19:22;;;;;;;0.90;0.50;;;21.70;69.50;;;;;;5054530;28;20029;-81
2021/07/23 10:21:49;;;;;;;;;;;21.80;69.10;;;;;;5066981;28;20127;-80
2021/07/23 10:24:17;;;;;;;0.77;0.77;;;21.80;69.20;;;;;;5074135;28;19904;-79
2021/07/23 10:26:44;;;;;;;0.60;0.60;;;21.90;69.00;;;;;;5074206;28;20021;-79
2021/07/23 10:29:09;;;;;;;0.65;0.65;;;21.90;69.00;;;;;;5055932;28;20021;-80
2021/07/23 10:31:38;;;;;;;0.73;0.73;;;21.90;69.20;;;;;;5054132;28;20023;-80
2021/07/23 10:34:04;;;;;;;1.05;0.73;;;21.70;69.30;;;;;;5054086;28;20110;-80
2021/07/23 10:36:30;;;;;;;1.25;0.82;;;21.70;69.60;;;;;;5060707;28;20040;-80
2021/07/23 10:39:05;;;;;;;0.57;0.57;;;21.70;69.60;;;;;;5074040;28;20109;-80
2021/07/23 10:42:00;;;;;;;0.93;0.80;;;21.70;69.50;;;;;;5074075;28;20028;-80
2021/07/23 10:44:28;;;;;;;0.80;0.77;;;21.70;69.30;;;;;;5055914;28;20040;-80
2021/07/23 10:46:56;;;;;;;0.47;0.47;;;21.80;69.50;;;;;;5058965;28;20021;-80
2021/07/23 10:49:24;;;;;;;0.82;0.70;;;21.70;69.50;;;;;;5036017;28;20029;-80
2021/07/23 10:51:52;;;;;;;0.87;0.70;;;21.80;69.50;;;;;;5053449;28;20049;-81
2021/07/23 10:54:19;;;;;;;0.60;0.60;;;21.90;69.40;;;;;;5053876;28;20449;-79
2021/07/23 10:56:56;;;;;;;0.98;0.70;;;21.80;69.10;;;;;;5063365;28;20029;-80
2021/07/23 10:59:43;;;;;;;0.70;0.70;;;21.70;69.30;;;;;;5055625;28;20392;-80
2021/07/23 11:02:13;;;;;;;1.25;0.90;;;21.60;69.60;;;;;;5073416;28;20185;-80
2021/07/23 11:04:39;;;;;;;1.17;0.88;;;21.50;69.80;;;;;;5059377;28;20032;-80
2021/07/23 11:07:06;;;;;;;0.68;0.68;;;21.40;69.80;;;;;;5053452;28;20029;-80
2021/07/23 11:09:34;;;;;;;0.90;0.90;;;21.40;69.90;;;;;;5053539;28;20189;-80
2021/07/23 11:12:16;;;;;;;0.60;0.60;;;21.40;70.00;;;;;;5053007;28;20146;-80
2021/07/23 11:14:41;;;;;;;0.95;0.82;;;21.40;69.80;;;;;;5065715;28;20115;-79
2021/07/23 11:17:08;;;;;;;1.17;0.90;;;21.40;69.60;;;;;;5073434;28;20055;-80
2021/07/23 11:19:34;;;;;;;1.08;0.82;;;21.50;69.40;;;;;;5073536;28;20540;-79
2021/07/23 11:22:00;;;;;;;1.25;0.88;;;21.50;69.30;;;;;;5073281;28;20119;-80
2021/07/23 11:24:34;;;;;;;0.88;0.88;;;21.60;69.20;;;;;;5058575;28;20029;-80
2021/07/23 11:27:00;;;;;;;0.50;0.50;;;21.80;69.00;;;;;;5052806;28;20135;-79
2021/07/23 11:29:38;;;;;;;0.73;0.70;;;22.10;68.60;;;;;;5052866;28;20470;-79
2021/07/23 11:32:09;;;;;;;0.75;0.57;;;22.60;67.70;;;;;;5053294;28;20112;-80
2021/07/23 11:34:38;;;;;;;0.40;0.40;;;22.90;67.40;;;;;;5049198;28;20020;-80
2021/07/23 11:37:21;;;;;;;0.47;0.47;;;23.10;67.30;;;;;;5073149;28;20085;-80
2021/07/23 11:39:58;;;;;;;0.60;0.60;;;23.10;67.10;;;;;;5048805;28;20029;-79
2021/07/23 11:42:25;;;;;;;0.68;0.68;;;23.10;67.20;;;;;;5052725;28;20062;-81
2021/07/23 11:44:57;;;;;;;0.60;0.60;;;23.30;67.10;;;;;;5053552;28;20021;-84
2021/07/23 11:47:31;;;;;;;0.68;0.50;;;23.30;66.90;;;;;;5071954;28;20028;-84
2021/07/23 11:49:59;;;;;;;0.93;0.93;;;23.20;67.10;;;;;;5066698;28;20025;-85
2021/07/23 11:52:25;;;;;;;0.55;0.55;;;23.10;67.30;;;;;;5053725;28;20112;-86
2021/07/23 11:55:00;;;;;;;0.30;0.30;;;23.00;67.40;;;;;;5054031;28;20070;-87
2021/07/23 11:57:29;;;;;;;0.57;0.57;;;23.00;67.60;;;;;;5065588;28;20029;-87
2021/07/23 11:59:55;;;;;;;0.93;0.60;;;23.00;67.60;;;;;;5073876;28;20048;-86
2021/07/23 12:02:27;;;;;;;0.70;0.70;;;23.40;67.40;;;;;;5073837;28;20075;-87
2021/07/23 12:05:06;;;;;;;0.57;0.57;;;24.30;65.90;;;;;;5073618;28;20099;-86
2021/07/23 12:07:33;;;;;;;1.40;1.15;;;25.40;64.60;;;;;;5073463;28;20048;-85
2021/07/23 12:10:00;;;;;;;1.08;1.00;;;26.30;63.20;;;;;;5073325;28;20024;-87
2021/07/23 12:12:26;;;;;;;0.73;0.60;;;26.70;62.20;;;;;;5073624;28;20082;-87
2021/07/23 12:14:51;;;;;;;0.65;0.65;;;26.40;62.90;;;;;;5065071;28;20017;-88
2021/07/23 12:17:17;;;;;;;1.73;1.02;;;26.40;63.30;;;;;;5053489;28;20044;-82
2021/07/23 12:19:42;;;;;;;1.10;1.00;;;26.10;63.50;;;;;;5052983;28;20017;-81
2021/07/23 12:22:10;;;;;;;1.13;0.90;;;26.20;63.80;;;;;;5052831;28;20120;-83
2021/07/23 12:24:36;;;;;;;1.02;0.90;;;26.60;63.40;;;;;;5061018;28;20481;-85
2021/07/23 12:27:18;;;;;;;0.80;0.80;;;26.30;63.50;;;;;;5051969;28;20036;-83
2021/07/23 12:29:44;;;;;;;0.82;0.82;;;25.80;64.40;;;;;;5051563;28;20569;-83
2021/07/23 12:32:11;;;;;;;1.17;1.08;;;25.40;65.30;;;;;;5051196;28;20111;-84
2021/07/23 12:34:37;;;;;;;0.73;0.73;;;25.20;65.60;;;;;;5069274;28;20066;-84
2021/07/23 12:37:17;;;;;;;1.05;1.00;;;25.40;65.20;;;;;;5053161;28;20036;-84
2021/07/23 12:39:50;;;;;;;1.52;1.08;;;25.80;64.70;;;;;;5050628;28;20048;-85
2021/07/23 12:42:17;;;;;;;1.35;1.25;;;25.70;64.30;;;;;;5055467;28;20025;-84
2021/07/23 12:44:42;;;;;;;1.20;1.00;;;25.40;64.60;;;;;;5037816;28;20079;-83
2021/07/23 12:47:15;;;;;;;1.63;1.20;;;25.40;64.90;;;;;;5073308;28;20024;-85